sensor_id;sensor_type;location;lat;lon;timestamp;P1;durP1;ratioP1;P2;durP2;ratioP2
18090;SDS011;9172;49.948;9.208;2023-02-15T00:01:18;31.87;;;12.80;;
18090;SDS011;9172;49.948;9.208;2023-02-15T00:03:47;24.50;;;10.83;;
18090;SDS011;9172;49.948;9.208;2023-02-15T00:06:17;28.13;;;11.80;;
18090;SDS011;9172;49.948;9.208;2023-02-15T00:08:46;33.33;;;12.47;;
18090;SDS011;9172;49.948;9.208;2023-02-15T00:11:16;29.07;;;11.73;;
18090;SDS011;9172;49.948;9.208;2023-02-15T00:13:48;27.83;;;11.63;;
18090;SDS011;9172;49.948;9.208;2023-02-15T00:16:17;29.77;;;12.67;;
18090;SDS011;9172;49.948;9.208;2023-02-15T00:18:46;28.10;;;12.93;;
18090;SDS011;9172;49.948;9.208;2023-02-15T00:21:14;27.87;;;12.17;;
18090;SDS011;9172;49.948;9.208;2023-02-15T00:23:44;34.27;;;11.97;;
18090;SDS011;9172;49.948;9.208;2023-02-15T00:26:13;26.57;;;11.80;;
18090;SDS011;9172;49.948;9.208;2023-02-15T00:28:41;29.53;;;11.13;;
18090;SDS011;9172;49.948;9.208;2023-02-15T00:31:11;29.97;;;12.27;;
18090;SDS011;9172;49.948;9.208;2023-02-15T00:33:40;28.30;;;12.50;;
18090;SDS011;9172;49.948;9.208;2023-02-15T00:36:09;34.17;;;13.17;;
18090;SDS011;9172;49.948;9.208;2023-02-15T00:38:39;33.60;;;12.33;;
18090;SDS011;9172;49.948;9.208;2023-02-15T00:41:08;25.97;;;11.57;;
18090;SDS011;9172;49.948;9.208;2023-02-15T00:43:37;28.97;;;11.33;;
18090;SDS011;9172;49.948;9.208;2023-02-15T00:46:05;27.50;;;10.83;;
18090;SDS011;9172;49.948;9.208;2023-02-15T00:48:34;28.57;;;11.20;;
18090;SDS011;9172;49.948;9.208;2023-02-15T00:51:03;26.13;;;11.43;;
18090;SDS011;9172;49.948;9.208;2023-02-15T00:53:32;27.37;;;11.70;;
18090;SDS011;9172;49.948;9.208;2023-02-15T00:56:01;27.87;;;11.97;;
18090;SDS011;9172;49.948;9.208;2023-02-15T00:58:31;31.87;;;12.27;;
18090;SDS011;9172;49.948;9.208;2023-02-15T01:01:02;24.40;;;10.20;;
18090;SDS011;9172;49.948;9.208;2023-02-15T01:03:33;26.57;;;11.57;;
18090;SDS011;9172;49.948;9.208;2023-02-15T01:06:03;26.70;;;11.30;;
18090;SDS011;9172;49.948;9.208;2023-02-15T01:08:32;30.03;;;12.30;;
18090;SDS011;9172;49.948;9.208;2023-02-15T01:11:03;32.40;;;11.67;;
18090;SDS011;9172;49.948;9.208;2023-02-15T01:13:32;29.20;;;11.73;;
18090;SDS011;9172;49.948;9.208;2023-02-15T01:16:02;27.80;;;11.40;;
18090;SDS011;9172;49.948;9.208;2023-02-15T01:18:31;29.87;;;12.17;;
18090;SDS011;9172;49.948;9.208;2023-02-15T01:21:00;24.50;;;9.90;;
18090;SDS011;9172;49.948;9.208;2023-02-15T01:23:37;27.03;;;11.47;;
18090;SDS011;9172;49.948;9.208;2023-02-15T01:26:05;29.90;;;11.63;;
18090;SDS011;9172;49.948;9.208;2023-02-15T01:28:34;28.03;;;11.87;;
18090;SDS011;9172;49.948;9.208;2023-02-15T01:31:05;22.77;;;10.27;;
18090;SDS011;9172;49.948;9.208;2023-02-15T01:33:35;24.30;;;11.33;;
18090;SDS011;9172;49.948;9.208;2023-02-15T01:36:04;28.10;;;11.77;;
18090;SDS011;9172;49.948;9.208;2023-02-15T01:38:32;26.37;;;11.17;;
18090;SDS011;9172;49.948;9.208;2023-02-15T01:41:02;32.40;;;11.20;;
18090;SDS011;9172;49.948;9.208;2023-02-15T01:43:47;29.23;;;11.87;;
18090;SDS011;9172;49.948;9.208;2023-02-15T01:46:17;26.30;;;10.67;;
18090;SDS011;9172;49.948;9.208;2023-02-15T01:48:51;22.30;;;10.03;;
18090;SDS011;9172;49.948;9.208;2023-02-15T01:51:22;26.27;;;10.40;;
18090;SDS011;9172;49.948;9.208;2023-02-15T01:53:55;25.77;;;10.73;;
18090;SDS011;9172;49.948;9.208;2023-02-15T01:56:26;25.57;;;10.07;;
18090;SDS011;9172;49.948;9.208;2023-02-15T01:58:58;22.57;;;9.87;;
18090;SDS011;9172;49.948;9.208;2023-02-15T02:01:29;23.23;;;10.63;;
18090;SDS011;9172;49.948;9.208;2023-02-15T02:04:00;23.27;;;11.13;;
18090;SDS011;9172;49.948;9.208;2023-02-15T02:06:31;24.40;;;10.23;;
18090;SDS011;9172;49.948;9.208;2023-02-15T02:09:01;22.33;;;10.83;;
18090;SDS011;9172;49.948;9.208;2023-02-15T02:11:30;22.60;;;9.97;;
18090;SDS011;9172;49.948;9.208;2023-02-15T02:13:59;22.07;;;10.90;;
18090;SDS011;9172;49.948;9.208;2023-02-15T02:16:30;19.27;;;8.90;;
18090;SDS011;9172;49.948;9.208;2023-02-15T02:19:08;26.30;;;10.50;;
18090;SDS011;9172;49.948;9.208;2023-02-15T02:25:06;25.03;;;10.70;;
18090;SDS011;9172;49.948;9.208;2023-02-15T02:27:41;23.90;;;9.80;;
18090;SDS011;9172;49.948;9.208;2023-02-15T02:30:22;22.30;;;10.30;;
18090;SDS011;9172;49.948;9.208;2023-02-15T02:33:02;20.40;;;10.13;;
18090;SDS011;9172;49.948;9.208;2023-02-15T02:35:51;24.47;;;10.00;;
18090;SDS011;9172;49.948;9.208;2023-02-15T02:38:23;18.60;;;8.93;;
18090;SDS011;9172;49.948;9.208;2023-02-15T02:40:57;21.23;;;10.50;;
18090;SDS011;9172;49.948;9.208;2023-02-15T02:43:29;25.70;;;11.17;;
18090;SDS011;9172;49.948;9.208;2023-02-15T02:46:02;23.17;;;10.90;;
18090;SDS011;9172;49.948;9.208;2023-02-15T02:48:33;22.17;;;10.30;;
18090;SDS011;9172;49.948;9.208;2023-02-15T02:51:03;23.43;;;9.50;;
18090;SDS011;9172;49.948;9.208;2023-02-15T02:53:32;23.13;;;9.73;;
18090;SDS011;9172;49.948;9.208;2023-02-15T02:56:03;22.70;;;10.13;;
18090;SDS011;9172;49.948;9.208;2023-02-15T02:58:35;26.50;;;11.40;;
18090;SDS011;9172;49.948;9.208;2023-02-15T03:01:08;23.80;;;9.97;;
18090;SDS011;9172;49.948;9.208;2023-02-15T03:03:39;22.40;;;9.57;;
18090;SDS011;9172;49.948;9.208;2023-02-15T03:06:12;24.67;;;10.73;;
18090;SDS011;9172;49.948;9.208;2023-02-15T03:08:45;22.53;;;9.70;;
18090;SDS011;9172;49.948;9.208;2023-02-15T03:11:16;21.60;;;9.97;;
18090;SDS011;9172;49.948;9.208;2023-02-15T03:13:45;21.93;;;9.50;;
18090;SDS011;9172;49.948;9.208;2023-02-15T03:16:16;23.83;;;9.87;;
18090;SDS011;9172;49.948;9.208;2023-02-15T03:18:53;27.57;;;11.17;;
18090;SDS011;9172;49.948;9.208;2023-02-15T03:21:27;19.50;;;9.57;;
18090;SDS011;9172;49.948;9.208;2023-02-15T03:24:01;25.30;;;10.63;;
18090;SDS011;9172;49.948;9.208;2023-02-15T03:26:33;24.97;;;11.60;;
18090;SDS011;9172;49.948;9.208;2023-02-15T03:29:04;27.03;;;12.33;;
18090;SDS011;9172;49.948;9.208;2023-02-15T03:31:35;29.20;;;12.37;;
18090;SDS011;9172;49.948;9.208;2023-02-15T03:34:08;25.50;;;10.03;;
18090;SDS011;9172;49.948;9.208;2023-02-15T03:36:50;24.70;;;10.53;;
18090;SDS011;9172;49.948;9.208;2023-02-15T03:39:23;22.40;;;9.17;;
18090;SDS011;9172;49.948;9.208;2023-02-15T03:41:55;24.83;;;9.67;;
18090;SDS011;9172;49.948;9.208;2023-02-15T03:44:28;22.97;;;9.83;;
18090;SDS011;9172;49.948;9.208;2023-02-15T03:47:00;22.20;;;9.33;;
18090;SDS011;9172;49.948;9.208;2023-02-15T03:49:34;20.77;;;9.27;;
18090;SDS011;9172;49.948;9.208;2023-02-15T03:52:07;20.87;;;9.33;;
18090;SDS011;9172;49.948;9.208;2023-02-15T03:54:38;25.63;;;10.27;;
18090;SDS011;9172;49.948;9.208;2023-02-15T03:57:14;25.40;;;10.57;;
18090;SDS011;9172;49.948;9.208;2023-02-15T04:00:04;23.70;;;9.93;;
18090;SDS011;9172;49.948;9.208;2023-02-15T04:03:03;22.80;;;9.97;;
18090;SDS011;9172;49.948;9.208;2023-02-15T04:05:36;25.83;;;10.43;;
18090;SDS011;9172;49.948;9.208;2023-02-15T04:08:05;22.73;;;9.73;;
18090;SDS011;9172;49.948;9.208;2023-02-15T04:10:34;22.17;;;10.33;;
18090;SDS011;9172;49.948;9.208;2023-02-15T04:13:22;24.10;;;10.47;;
18090;SDS011;9172;49.948;9.208;2023-02-15T04:15:54;21.67;;;10.40;;
18090;SDS011;9172;49.948;9.208;2023-02-15T04:18:33;24.30;;;10.33;;
18090;SDS011;9172;49.948;9.208;2023-02-15T04:21:21;22.50;;;10.37;;
18090;SDS011;9172;49.948;9.208;2023-02-15T04:24:09;20.53;;;8.43;;
18090;SDS011;9172;49.948;9.208;2023-02-15T04:26:56;21.10;;;10.07;;
18090;SDS011;9172;49.948;9.208;2023-02-15T04:29:26;24.93;;;10.60;;
18090;SDS011;9172;49.948;9.208;2023-02-15T04:31:56;24.03;;;10.40;;
18090;SDS011;9172;49.948;9.208;2023-02-15T04:34:27;26.17;;;10.93;;
18090;SDS011;9172;49.948;9.208;2023-02-15T04:36:56;23.93;;;10.17;;
18090;SDS011;9172;49.948;9.208;2023-02-15T04:39:25;31.47;;;12.53;;
18090;SDS011;9172;49.948;9.208;2023-02-15T04:41:54;30.07;;;12.37;;
18090;SDS011;9172;49.948;9.208;2023-02-15T04:44:23;23.00;;;9.47;;
18090;SDS011;9172;49.948;9.208;2023-02-15T04:46:52;26.20;;;11.37;;
18090;SDS011;9172;49.948;9.208;2023-02-15T04:49:21;22.67;;;9.93;;
18090;SDS011;9172;49.948;9.208;2023-02-15T04:51:52;24.90;;;10.87;;
18090;SDS011;9172;49.948;9.208;2023-02-15T04:54:21;23.27;;;9.47;;
18090;SDS011;9172;49.948;9.208;2023-02-15T04:56:50;26.43;;;11.03;;
18090;SDS011;9172;49.948;9.208;2023-02-15T04:59:18;24.13;;;9.63;;
18090;SDS011;9172;49.948;9.208;2023-02-15T05:01:47;25.10;;;10.53;;
18090;SDS011;9172;49.948;9.208;2023-02-15T05:04:15;21.90;;;10.30;;
18090;SDS011;9172;49.948;9.208;2023-02-15T05:06:44;22.90;;;9.83;;
18090;SDS011;9172;49.948;9.208;2023-02-15T05:09:12;24.40;;;10.53;;
18090;SDS011;9172;49.948;9.208;2023-02-15T05:11:42;25.33;;;10.17;;
18090;SDS011;9172;49.948;9.208;2023-02-15T05:14:11;24.87;;;11.30;;
18090;SDS011;9172;49.948;9.208;2023-02-15T05:16:41;23.13;;;10.60;;
18090;SDS011;9172;49.948;9.208;2023-02-15T05:19:09;24.67;;;10.23;;
18090;SDS011;9172;49.948;9.208;2023-02-15T05:21:38;24.73;;;10.30;;
18090;SDS011;9172;49.948;9.208;2023-02-15T05:24:07;21.37;;;10.10;;
18090;SDS011;9172;49.948;9.208;2023-02-15T05:26:56;25.47;;;11.30;;
18090;SDS011;9172;49.948;9.208;2023-02-15T05:29:42;23.17;;;10.00;;
18090;SDS011;9172;49.948;9.208;2023-02-15T05:32:12;25.70;;;9.93;;
18090;SDS011;9172;49.948;9.208;2023-02-15T05:34:41;23.80;;;10.40;;
18090;SDS011;9172;49.948;9.208;2023-02-15T05:37:09;24.47;;;10.30;;
18090;SDS011;9172;49.948;9.208;2023-02-15T05:39:40;19.23;;;8.90;;
18090;SDS011;9172;49.948;9.208;2023-02-15T05:42:09;18.47;;;8.47;;
18090;SDS011;9172;49.948;9.208;2023-02-15T05:44:39;23.23;;;10.07;;
18090;SDS011;9172;49.948;9.208;2023-02-15T05:47:08;23.30;;;9.77;;
18090;SDS011;9172;49.948;9.208;2023-02-15T05:49:36;19.93;;;8.27;;
18090;SDS011;9172;49.948;9.208;2023-02-15T05:52:05;19.13;;;8.03;;
18090;SDS011;9172;49.948;9.208;2023-02-15T05:54:34;20.60;;;9.43;;
18090;SDS011;9172;49.948;9.208;2023-02-15T05:57:02;17.20;;;7.97;;
18090;SDS011;9172;49.948;9.208;2023-02-15T05:59:31;21.37;;;8.57;;
18090;SDS011;9172;49.948;9.208;2023-02-15T06:02:09;17.93;;;8.40;;
18090;SDS011;9172;49.948;9.208;2023-02-15T06:04:38;22.73;;;8.60;;
18090;SDS011;9172;49.948;9.208;2023-02-15T06:07:07;17.80;;;8.20;;
18090;SDS011;9172;49.948;9.208;2023-02-15T06:09:35;19.13;;;9.13;;
18090;SDS011;9172;49.948;9.208;2023-02-15T06:12:04;19.50;;;8.03;;
18090;SDS011;9172;49.948;9.208;2023-02-15T06:14:33;17.23;;;7.77;;
18090;SDS011;9172;49.948;9.208;2023-02-15T06:17:02;16.53;;;8.73;;
18090;SDS011;9172;49.948;9.208;2023-02-15T06:19:30;17.77;;;7.60;;
18090;SDS011;9172;49.948;9.208;2023-02-15T06:21:59;19.10;;;8.33;;
18090;SDS011;9172;49.948;9.208;2023-02-15T06:24:27;20.43;;;8.57;;
18090;SDS011;9172;49.948;9.208;2023-02-15T06:26:56;20.00;;;9.50;;
18090;SDS011;9172;49.948;9.208;2023-02-15T06:29:25;20.07;;;8.93;;
18090;SDS011;9172;49.948;9.208;2023-02-15T06:31:53;19.37;;;9.50;;
18090;SDS011;9172;49.948;9.208;2023-02-15T06:34:23;22.20;;;9.47;;
18090;SDS011;9172;49.948;9.208;2023-02-15T06:36:53;22.17;;;9.67;;
18090;SDS011;9172;49.948;9.208;2023-02-15T06:39:21;25.70;;;9.07;;
18090;SDS011;9172;49.948;9.208;2023-02-15T06:41:50;22.03;;;9.60;;
18090;SDS011;9172;49.948;9.208;2023-02-15T06:44:19;21.00;;;9.83;;
18090;SDS011;9172;49.948;9.208;2023-02-15T06:49:24;19.90;;;8.40;;
18090;SDS011;9172;49.948;9.208;2023-02-15T06:51:53;23.23;;;9.60;;
18090;SDS011;9172;49.948;9.208;2023-02-15T06:54:22;21.13;;;8.43;;
18090;SDS011;9172;49.948;9.208;2023-02-15T06:56:51;22.83;;;9.67;;
18090;SDS011;9172;49.948;9.208;2023-02-15T06:59:21;23.43;;;9.97;;
18090;SDS011;9172;49.948;9.208;2023-02-15T07:01:49;20.23;;;9.60;;
18090;SDS011;9172;49.948;9.208;2023-02-15T07:04:19;26.53;;;10.30;;
18090;SDS011;9172;49.948;9.208;2023-02-15T07:06:47;20.87;;;9.00;;
18090;SDS011;9172;49.948;9.208;2023-02-15T07:09:17;21.33;;;9.67;;
18090;SDS011;9172;49.948;9.208;2023-02-15T07:11:45;22.57;;;9.97;;
18090;SDS011;9172;49.948;9.208;2023-02-15T07:14:46;20.77;;;9.30;;
18090;SDS011;9172;49.948;9.208;2023-02-15T07:17:15;20.60;;;9.03;;
18090;SDS011;9172;49.948;9.208;2023-02-15T07:19:45;18.47;;;8.50;;
18090;SDS011;9172;49.948;9.208;2023-02-15T07:22:13;21.33;;;9.10;;
18090;SDS011;9172;49.948;9.208;2023-02-15T07:24:42;22.07;;;9.60;;
18090;SDS011;9172;49.948;9.208;2023-02-15T07:27:10;21.07;;;9.80;;
18090;SDS011;9172;49.948;9.208;2023-02-15T07:29:40;27.27;;;10.97;;
18090;SDS011;9172;49.948;9.208;2023-02-15T07:32:08;26.53;;;10.37;;
18090;SDS011;9172;49.948;9.208;2023-02-15T07:34:36;21.40;;;9.77;;
18090;SDS011;9172;49.948;9.208;2023-02-15T07:37:05;21.60;;;9.53;;
18090;SDS011;9172;49.948;9.208;2023-02-15T07:39:33;20.90;;;9.60;;
18090;SDS011;9172;49.948;9.208;2023-02-15T07:42:02;22.47;;;9.87;;
18090;SDS011;9172;49.948;9.208;2023-02-15T07:44:31;21.47;;;9.77;;
18090;SDS011;9172;49.948;9.208;2023-02-15T07:47:00;18.13;;;9.07;;
18090;SDS011;9172;49.948;9.208;2023-02-15T07:49:29;28.80;;;11.57;;
18090;SDS011;9172;49.948;9.208;2023-02-15T07:52:00;23.10;;;9.73;;
18090;SDS011;9172;49.948;9.208;2023-02-15T07:54:30;24.47;;;9.93;;
18090;SDS011;9172;49.948;9.208;2023-02-15T07:56:58;22.83;;;9.07;;
18090;SDS011;9172;49.948;9.208;2023-02-15T07:59:28;21.03;;;9.57;;
18090;SDS011;9172;49.948;9.208;2023-02-15T08:01:58;24.80;;;9.87;;
18090;SDS011;9172;49.948;9.208;2023-02-15T08:04:27;22.00;;;9.13;;
18090;SDS011;9172;49.948;9.208;2023-02-15T08:06:56;22.53;;;9.80;;
18090;SDS011;9172;49.948;9.208;2023-02-15T08:09:26;21.43;;;10.07;;
18090;SDS011;9172;49.948;9.208;2023-02-15T08:11:56;27.10;;;10.77;;
18090;SDS011;9172;49.948;9.208;2023-02-15T08:14:24;25.80;;;10.67;;
18090;SDS011;9172;49.948;9.208;2023-02-15T08:16:55;26.30;;;11.03;;
18090;SDS011;9172;49.948;9.208;2023-02-15T08:19:26;29.30;;;12.63;;
18090;SDS011;9172;49.948;9.208;2023-02-15T08:21:56;21.10;;;9.33;;
18090;SDS011;9172;49.948;9.208;2023-02-15T08:24:26;25.30;;;10.20;;
18090;SDS011;9172;49.948;9.208;2023-02-15T08:26:57;25.37;;;10.87;;
18090;SDS011;9172;49.948;9.208;2023-02-15T08:29:29;24.83;;;11.33;;
18090;SDS011;9172;49.948;9.208;2023-02-15T08:31:58;22.70;;;10.30;;
18090;SDS011;9172;49.948;9.208;2023-02-15T08:34:29;24.13;;;10.93;;
18090;SDS011;9172;49.948;9.208;2023-02-15T08:36:59;25.03;;;10.40;;
18090;SDS011;9172;49.948;9.208;2023-02-15T08:39:28;25.63;;;11.80;;
18090;SDS011;9172;49.948;9.208;2023-02-15T08:41:58;22.57;;;10.77;;
18090;SDS011;9172;49.948;9.208;2023-02-15T08:44:26;23.80;;;9.90;;
18090;SDS011;9172;49.948;9.208;2023-02-15T08:46:55;21.57;;;9.60;;
18090;SDS011;9172;49.948;9.208;2023-02-15T08:49:27;21.90;;;9.77;;
18090;SDS011;9172;49.948;9.208;2023-02-15T08:51:56;25.63;;;11.23;;
18090;SDS011;9172;49.948;9.208;2023-02-15T08:54:25;24.13;;;10.77;;
18090;SDS011;9172;49.948;9.208;2023-02-15T08:56:54;23.93;;;11.30;;
18090;SDS011;9172;49.948;9.208;2023-02-15T09:01:58;21.03;;;9.83;;
18090;SDS011;9172;49.948;9.208;2023-02-15T09:04:29;23.37;;;10.77;;
18090;SDS011;9172;49.948;9.208;2023-02-15T09:06:58;26.03;;;12.13;;
18090;SDS011;9172;49.948;9.208;2023-02-15T09:09:28;25.30;;;11.80;;
18090;SDS011;9172;49.948;9.208;2023-02-15T09:11:59;25.43;;;11.67;;
18090;SDS011;9172;49.948;9.208;2023-02-15T09:14:27;24.57;;;11.20;;
18090;SDS011;9172;49.948;9.208;2023-02-15T09:16:56;23.13;;;10.97;;
18090;SDS011;9172;49.948;9.208;2023-02-15T09:19:26;23.67;;;10.83;;
18090;SDS011;9172;49.948;9.208;2023-02-15T09:21:55;25.07;;;10.93;;
18090;SDS011;9172;49.948;9.208;2023-02-15T09:24:24;23.73;;;10.30;;
18090;SDS011;9172;49.948;9.208;2023-02-15T09:26:53;24.70;;;11.03;;
18090;SDS011;9172;49.948;9.208;2023-02-15T09:29:22;19.47;;;10.03;;
18090;SDS011;9172;49.948;9.208;2023-02-15T09:31:51;23.90;;;10.70;;
18090;SDS011;9172;49.948;9.208;2023-02-15T09:36:56;24.50;;;10.37;;
18090;SDS011;9172;49.948;9.208;2023-02-15T09:42:09;19.97;;;9.33;;
18090;SDS011;9172;49.948;9.208;2023-02-15T09:44:59;20.60;;;9.60;;
18090;SDS011;9172;49.948;9.208;2023-02-15T09:47:45;21.47;;;10.53;;
18090;SDS011;9172;49.948;9.208;2023-02-15T09:53:07;22.10;;;9.67;;
18090;SDS011;9172;49.948;9.208;2023-02-15T09:55:45;21.17;;;9.83;;
18090;SDS011;9172;49.948;9.208;2023-02-15T09:58:20;24.63;;;10.87;;
18090;SDS011;9172;49.948;9.208;2023-02-15T10:00:50;21.07;;;10.43;;
18090;SDS011;9172;49.948;9.208;2023-02-15T10:03:33;22.03;;;9.97;;
18090;SDS011;9172;49.948;9.208;2023-02-15T10:06:16;21.77;;;10.20;;
18090;SDS011;9172;49.948;9.208;2023-02-15T10:08:54;20.37;;;10.37;;
18090;SDS011;9172;49.948;9.208;2023-02-15T10:11:33;22.00;;;10.43;;
18090;SDS011;9172;49.948;9.208;2023-02-15T10:14:15;21.00;;;9.73;;
18090;SDS011;9172;49.948;9.208;2023-02-15T10:16:53;20.43;;;9.77;;
18090;SDS011;9172;49.948;9.208;2023-02-15T10:19:25;19.80;;;10.07;;
18090;SDS011;9172;49.948;9.208;2023-02-15T10:22:01;19.87;;;9.63;;
18090;SDS011;9172;49.948;9.208;2023-02-15T10:24:51;24.20;;;10.53;;
18090;SDS011;9172;49.948;9.208;2023-02-15T10:27:26;20.30;;;10.73;;
18090;SDS011;9172;49.948;9.208;2023-02-15T10:29:59;20.23;;;10.80;;
18090;SDS011;9172;49.948;9.208;2023-02-15T10:32:31;17.60;;;9.07;;
18090;SDS011;9172;49.948;9.208;2023-02-15T10:35:06;20.60;;;10.13;;
18090;SDS011;9172;49.948;9.208;2023-02-15T10:37:56;22.47;;;10.50;;
18090;SDS011;9172;49.948;9.208;2023-02-15T10:40:35;21.70;;;10.93;;
18090;SDS011;9172;49.948;9.208;2023-02-15T10:43:30;19.23;;;9.83;;
18090;SDS011;9172;49.948;9.208;2023-02-15T10:46:11;18.83;;;9.53;;
18090;SDS011;9172;49.948;9.208;2023-02-15T10:48:52;33.60;;;13.27;;
18090;SDS011;9172;49.948;9.208;2023-02-15T10:51:32;24.83;;;10.47;;
18090;SDS011;9172;49.948;9.208;2023-02-15T10:54:07;21.10;;;10.93;;
18090;SDS011;9172;49.948;9.208;2023-02-15T10:56:45;21.13;;;10.37;;
18090;SDS011;9172;49.948;9.208;2023-02-15T10:59:22;19.50;;;9.73;;
18090;SDS011;9172;49.948;9.208;2023-02-15T11:01:56;21.97;;;10.23;;
18090;SDS011;9172;49.948;9.208;2023-02-15T11:07:32;23.23;;;10.97;;
18090;SDS011;9172;49.948;9.208;2023-02-15T11:10:05;20.80;;;10.27;;
18090;SDS011;9172;49.948;9.208;2023-02-15T11:12:45;17.80;;;9.60;;
18090;SDS011;9172;49.948;9.208;2023-02-15T11:15:16;20.90;;;10.30;;
18090;SDS011;9172;49.948;9.208;2023-02-15T11:17:48;20.03;;;9.93;;
18090;SDS011;9172;49.948;9.208;2023-02-15T11:20:21;19.73;;;10.37;;
18090;SDS011;9172;49.948;9.208;2023-02-15T11:22:51;16.67;;;9.03;;
18090;SDS011;9172;49.948;9.208;2023-02-15T11:25:22;20.30;;;10.10;;
18090;SDS011;9172;49.948;9.208;2023-02-15T11:27:52;15.30;;;9.00;;
18090;SDS011;9172;49.948;9.208;2023-02-15T11:30:23;19.77;;;9.83;;
18090;SDS011;9172;49.948;9.208;2023-02-15T11:32:54;20.13;;;9.93;;
18090;SDS011;9172;49.948;9.208;2023-02-15T11:35:27;20.50;;;9.90;;
18090;SDS011;9172;49.948;9.208;2023-02-15T11:38:01;19.57;;;9.30;;
18090;SDS011;9172;49.948;9.208;2023-02-15T11:40:33;18.43;;;9.33;;
18090;SDS011;9172;49.948;9.208;2023-02-15T11:43:05;17.40;;;8.97;;
18090;SDS011;9172;49.948;9.208;2023-02-15T11:45:36;19.37;;;9.97;;
18090;SDS011;9172;49.948;9.208;2023-02-15T11:48:08;18.97;;;10.20;;
18090;SDS011;9172;49.948;9.208;2023-02-15T11:50:39;23.23;;;10.90;;
18090;SDS011;9172;49.948;9.208;2023-02-15T11:53:12;21.87;;;9.60;;
18090;SDS011;9172;49.948;9.208;2023-02-15T11:55:43;18.00;;;9.17;;
18090;SDS011;9172;49.948;9.208;2023-02-15T11:58:15;20.50;;;9.07;;
18090;SDS011;9172;49.948;9.208;2023-02-15T12:00:47;17.47;;;9.97;;
18090;SDS011;9172;49.948;9.208;2023-02-15T12:03:21;18.83;;;9.37;;
18090;SDS011;9172;49.948;9.208;2023-02-15T12:05:53;16.50;;;8.90;;
18090;SDS011;9172;49.948;9.208;2023-02-15T12:08:26;22.43;;;9.60;;
18090;SDS011;9172;49.948;9.208;2023-02-15T12:11:00;15.83;;;9.13;;
18090;SDS011;9172;49.948;9.208;2023-02-15T12:13:29;17.10;;;9.83;;
18090;SDS011;9172;49.948;9.208;2023-02-15T12:15:58;18.10;;;9.57;;
18090;SDS011;9172;49.948;9.208;2023-02-15T12:18:34;19.37;;;10.10;;
18090;SDS011;9172;49.948;9.208;2023-02-15T12:21:07;19.30;;;9.53;;
18090;SDS011;9172;49.948;9.208;2023-02-15T12:23:46;16.37;;;8.67;;
18090;SDS011;9172;49.948;9.208;2023-02-15T12:26:26;17.53;;;8.83;;
18090;SDS011;9172;49.948;9.208;2023-02-15T12:28:57;16.90;;;9.47;;
18090;SDS011;9172;49.948;9.208;2023-02-15T12:31:30;14.83;;;8.40;;
18090;SDS011;9172;49.948;9.208;2023-02-15T12:34:01;16.23;;;9.07;;
18090;SDS011;9172;49.948;9.208;2023-02-15T12:36:33;17.83;;;9.13;;
18090;SDS011;9172;49.948;9.208;2023-02-15T12:39:18;16.10;;;9.10;;
18090;SDS011;9172;49.948;9.208;2023-02-15T12:41:57;18.70;;;9.67;;
18090;SDS011;9172;49.948;9.208;2023-02-15T12:44:29;15.83;;;8.47;;
18090;SDS011;9172;49.948;9.208;2023-02-15T12:46:59;19.37;;;10.40;;
18090;SDS011;9172;49.948;9.208;2023-02-15T12:49:30;16.83;;;9.20;;
18090;SDS011;9172;49.948;9.208;2023-02-15T12:52:00;19.53;;;10.20;;
18090;SDS011;9172;49.948;9.208;2023-02-15T12:54:33;18.43;;;9.20;;
18090;SDS011;9172;49.948;9.208;2023-02-15T12:57:13;16.40;;;9.07;;
18090;SDS011;9172;49.948;9.208;2023-02-15T12:59:50;16.87;;;9.40;;
18090;SDS011;9172;49.948;9.208;2023-02-15T13:02:23;18.07;;;9.03;;
18090;SDS011;9172;49.948;9.208;2023-02-15T13:04:53;18.97;;;8.87;;
18090;SDS011;9172;49.948;9.208;2023-02-15T13:07:24;17.23;;;8.63;;
18090;SDS011;9172;49.948;9.208;2023-02-15T13:09:55;18.80;;;9.17;;
18090;SDS011;9172;49.948;9.208;2023-02-15T13:12:25;15.83;;;8.87;;
18090;SDS011;9172;49.948;9.208;2023-02-15T13:14:56;20.50;;;9.73;;
18090;SDS011;9172;49.948;9.208;2023-02-15T13:17:28;19.37;;;9.60;;
18090;SDS011;9172;49.948;9.208;2023-02-15T13:20:02;16.97;;;8.77;;
18090;SDS011;9172;49.948;9.208;2023-02-15T13:22:37;15.13;;;8.10;;
18090;SDS011;9172;49.948;9.208;2023-02-15T13:25:11;15.27;;;8.33;;
18090;SDS011;9172;49.948;9.208;2023-02-15T13:27:43;15.37;;;9.13;;
18090;SDS011;9172;49.948;9.208;2023-02-15T13:30:22;17.57;;;8.90;;
18090;SDS011;9172;49.948;9.208;2023-02-15T13:32:53;15.10;;;8.70;;
18090;SDS011;9172;49.948;9.208;2023-02-15T13:35:24;16.20;;;9.00;;
18090;SDS011;9172;49.948;9.208;2023-02-15T13:38:00;17.23;;;9.10;;
18090;SDS011;9172;49.948;9.208;2023-02-15T13:40:51;17.87;;;9.43;;
18090;SDS011;9172;49.948;9.208;2023-02-15T13:43:25;17.30;;;8.80;;
18090;SDS011;9172;49.948;9.208;2023-02-15T13:46:02;17.47;;;9.17;;
18090;SDS011;9172;49.948;9.208;2023-02-15T13:48:39;15.27;;;8.93;;
18090;SDS011;9172;49.948;9.208;2023-02-15T13:51:13;15.50;;;9.10;;
18090;SDS011;9172;49.948;9.208;2023-02-15T13:53:58;15.60;;;9.03;;
18090;SDS011;9172;49.948;9.208;2023-02-15T13:56:40;15.90;;;8.53;;
18090;SDS011;9172;49.948;9.208;2023-02-15T13:59:26;16.90;;;9.27;;
18090;SDS011;9172;49.948;9.208;2023-02-15T14:07:30;16.23;;;8.77;;
18090;SDS011;9172;49.948;9.208;2023-02-15T14:10:34;18.77;;;9.47;;
18090;SDS011;9172;49.948;9.208;2023-02-15T14:16:19;16.93;;;8.97;;
18090;SDS011;9172;49.948;9.208;2023-02-15T14:18:51;19.13;;;9.07;;
18090;SDS011;9172;49.948;9.208;2023-02-15T14:21:24;19.63;;;10.07;;
18090;SDS011;9172;49.948;9.208;2023-02-15T14:23:58;14.90;;;8.03;;
18090;SDS011;9172;49.948;9.208;2023-02-15T14:26:34;18.77;;;10.23;;
18090;SDS011;9172;49.948;9.208;2023-02-15T14:29:10;17.23;;;10.07;;
18090;SDS011;9172;49.948;9.208;2023-02-15T14:31:43;16.50;;;9.13;;
18090;SDS011;9172;49.948;9.208;2023-02-15T14:34:17;19.27;;;10.10;;
18090;SDS011;9172;49.948;9.208;2023-02-15T14:36:49;16.20;;;8.90;;
18090;SDS011;9172;49.948;9.208;2023-02-15T14:39:25;20.37;;;9.87;;
18090;SDS011;9172;49.948;9.208;2023-02-15T14:42:15;19.30;;;9.73;;
18090;SDS011;9172;49.948;9.208;2023-02-15T14:44:48;20.10;;;10.03;;
18090;SDS011;9172;49.948;9.208;2023-02-15T14:47:20;18.57;;;10.03;;
18090;SDS011;9172;49.948;9.208;2023-02-15T14:49:51;17.10;;;9.13;;
18090;SDS011;9172;49.948;9.208;2023-02-15T14:52:19;16.40;;;8.83;;
18090;SDS011;9172;49.948;9.208;2023-02-15T14:54:58;19.40;;;10.33;;
18090;SDS011;9172;49.948;9.208;2023-02-15T14:57:28;30.40;;;10.53;;
18090;SDS011;9172;49.948;9.208;2023-02-15T15:00:05;19.43;;;8.97;;
18090;SDS011;9172;49.948;9.208;2023-02-15T15:02:54;19.97;;;10.17;;
18090;SDS011;9172;49.948;9.208;2023-02-15T15:05:24;15.83;;;8.70;;
18090;SDS011;9172;49.948;9.208;2023-02-15T15:07:56;15.67;;;9.07;;
18090;SDS011;9172;49.948;9.208;2023-02-15T15:10:33;16.67;;;8.97;;
18090;SDS011;9172;49.948;9.208;2023-02-15T15:22:39;13.83;;;8.70;;
18090;SDS011;9172;49.948;9.208;2023-02-15T15:25:10;17.03;;;8.47;;
18090;SDS011;9172;49.948;9.208;2023-02-15T15:27:46;16.13;;;9.13;;
18090;SDS011;9172;49.948;9.208;2023-02-15T15:42:31;15.67;;;8.67;;
18090;SDS011;9172;49.948;9.208;2023-02-15T15:48:27;18.47;;;8.70;;
18090;SDS011;9172;49.948;9.208;2023-02-15T15:51:02;16.40;;;8.37;;
18090;SDS011;9172;49.948;9.208;2023-02-15T15:53:37;17.13;;;9.57;;
18090;SDS011;9172;49.948;9.208;2023-02-15T15:56:10;21.07;;;10.70;;
18090;SDS011;9172;49.948;9.208;2023-02-15T15:58:42;20.03;;;11.03;;
18090;SDS011;9172;49.948;9.208;2023-02-15T16:01:15;21.23;;;9.00;;
18090;SDS011;9172;49.948;9.208;2023-02-15T16:03:50;15.67;;;9.83;;
18090;SDS011;9172;49.948;9.208;2023-02-15T16:06:26;17.17;;;10.00;;